Time;durP1;ratioP1;P1;durP2;ratioP2;P2;SDS_P1;SDS_P2;PMS_P1;PMS_P2;Temp;Humidity;BMP_temperature;BMP_pressure;BME280_temperature;BME280_humidity;BME280_pressure;Samples;Min_cycle;Max_cycle;Signal;HPM_P1;HPM_P2
2023/07/28 00:02:58;;;;;;;3.25;0.90;;;26.90;41.60;;;;;;6109273;29;20466;-75
2023/07/28 00:05:59;;;;;;;3.13;1.13;;;26.90;41.70;;;;;;6109196;29;20057;-76
2023/07/28 00:08:59;;;;;;;1.40;1.05;;;26.90;41.90;;;;;;6126816;29;20469;-76
2023/07/28 00:12:01;;;;;;;2.00;0.88;;;26.90;42.10;;;;;;6126062;29;20119;-75
2023/07/28 00:15:02;;;;;;;7.13;1.15;;;26.90;42.20;;;;;;6108599;29;20043;-78
2023/07/28 00:18:03;;;;;;;2.25;1.00;;;26.90;42.10;;;;;;6108358;29;20468;-76
2023/07/28 00:21:05;;;;;;;2.55;1.00;;;26.80;41.70;;;;;;6107258;29;20051;-75
2023/07/28 00:24:06;;;;;;;1.73;1.33;;;26.80;41.40;;;;;;6124775;29;20111;-76
2023/07/28 00:27:06;;;;;;;3.72;1.25;;;26.70;41.00;;;;;;6125887;29;20035;-75
2023/07/28 00:30:09;;;;;;;2.30;0.98;;;26.60;40.70;;;;;;6127285;29;20095;-75
2023/07/28 00:33:09;;;;;;;2.45;1.20;;;26.60;40.80;;;;;;6110303;29;20656;-76
2023/07/28 00:36:12;;;;;;;3.17;1.30;;;26.60;40.70;;;;;;6114298;29;20480;-76
2023/07/28 00:39:15;;;;;;;3.42;0.93;;;26.60;40.50;;;;;;6108577;29;20203;-76
2023/07/28 00:42:16;;;;;;;2.08;1.20;;;26.60;40.30;;;;;;6107942;29;20031;-76
2023/07/28 00:45:17;;;;;;;4.78;1.15;;;26.60;40.00;;;;;;6124563;29;20083;-75
2023/07/28 00:48:20;;;;;;;2.60;1.20;;;26.50;39.90;;;;;;6106930;29;20031;-74
2023/07/28 00:51:21;;;;;;;7.25;1.67;;;26.50;40.00;;;;;;6124898;29;20046;-76
2023/07/28 00:54:22;;;;;;;1.50;1.17;;;26.50;40.40;;;;;;6125270;29;20141;-76
2023/07/28 00:57:23;;;;;;;1.73;1.15;;;26.50;40.80;;;;;;6124189;29;20039;-75
2023/07/28 01:00:23;;;;;;;1.80;1.10;;;26.50;41.30;;;;;;6107526;29;20031;-75
2023/07/28 01:03:25;;;;;;;4.22;1.08;;;26.50;41.80;;;;;;6106761;29;20043;-76
2023/07/28 01:06:47;;;;;;;2.92;1.17;;;26.50;42.10;;;;;;6106726;29;20032;-76
2023/07/28 01:10:11;;;;;;;4.50;1.10;;;26.50;42.40;;;;;;6125538;29;20110;-75
2023/07/28 01:13:12;;;;;;;2.00;1.33;;;26.40;42.70;;;;;;6090076;29;20074;-77
2023/07/28 01:16:14;;;;;;;1.73;1.10;;;26.40;42.70;;;;;;6105882;29;20087;-76
2023/07/28 01:19:18;;;;;;;2.15;1.00;;;26.40;42.70;;;;;;6106857;29;20070;-75
2023/07/28 01:23:04;;;;;;;2.10;0.90;;;26.30;42.70;;;;;;6107261;29;20142;-76
2023/07/28 01:26:10;;;;;;;1.02;0.63;;;26.30;42.90;;;;;;6084094;29;20047;-76
2023/07/28 01:29:14;;;;;;;2.70;1.20;;;26.30;43.00;;;;;;6083336;29;20441;-77
2023/07/28 01:32:15;;;;;;;6.10;1.40;;;26.20;43.00;;;;;;6101197;29;20373;-77
2023/07/28 01:35:16;;;;;;;1.50;0.98;;;26.20;43.40;;;;;;6083637;29;20043;-76
2023/07/28 01:38:17;;;;;;;5.90;1.23;;;26.10;43.60;;;;;;6075976;29;20444;-77
2023/07/28 01:41:17;;;;;;;2.67;1.10;;;26.10;43.70;;;;;;6106146;29;20054;-77
2023/07/28 01:44:18;;;;;;;3.25;1.17;;;26.00;43.70;;;;;;6083287;29;20040;-77
2023/07/28 01:47:19;;;;;;;1.30;0.90;;;26.00;43.80;;;;;;6083150;29;20075;-76
2023/07/28 01:50:20;;;;;;;2.50;1.00;;;26.00;44.00;;;;;;6083680;29;20042;-77
2023/07/28 01:53:21;;;;;;;2.83;0.98;;;26.00;44.20;;;;;;6101143;29;20739;-76
2023/07/28 01:56:22;;;;;;;1.27;1.10;;;26.00;44.30;;;;;;6082856;29;20044;-76
2023/07/28 01:59:23;;;;;;;1.73;1.00;;;26.00;44.30;;;;;;6082992;29;20503;-76
2023/07/28 02:02:23;;;;;;;4.50;1.17;;;25.90;44.40;;;;;;6082617;29;20036;-76
2023/07/28 02:05:24;;;;;;;8.73;1.20;;;25.90;44.60;;;;;;6082607;29;20028;-76
2023/07/28 02:08:25;;;;;;;3.72;1.02;;;25.80;44.60;;;;;;6082808;29;20513;-76
2023/07/28 02:11:26;;;;;;;2.53;1.20;;;25.80;44.80;;;;;;6082234;29;20067;-75
2023/07/28 02:14:27;;;;;;;2.10;1.00;;;25.70;44.90;;;;;;6067082;29;20118;-76
2023/07/28 02:17:28;;;;;;;3.22;1.35;;;25.70;45.10;;;;;;6083411;29;20036;-78
2023/07/28 02:20:29;;;;;;;2.80;1.25;;;25.60;45.10;;;;;;6099013;29;20040;-76
2023/07/28 02:23:30;;;;;;;0.98;0.90;;;25.50;45.20;;;;;;6117949;29;20035;-76
2023/07/28 02:26:30;;;;;;;2.58;1.13;;;25.50;45.30;;;;;;6090830;29;20119;-76
2023/07/28 02:29:31;;;;;;;1.95;1.40;;;25.50;45.40;;;;;;6105214;29;20028;-75
2023/07/28 02:32:32;;;;;;;1.20;0.88;;;25.40;45.50;;;;;;6104642;29;20063;-77
2023/07/28 02:35:33;;;;;;;2.03;1.00;;;25.40;45.90;;;;;;6089170;29;20040;-76
2023/07/28 02:38:34;;;;;;;1.00;0.73;;;25.30;46.00;;;;;;6105303;29;20036;-76
2023/07/28 02:41:35;;;;;;;4.95;1.38;;;25.20;46.20;;;;;;6119372;29;20032;-76
2023/07/28 02:44:35;;;;;;;4.10;1.15;;;25.10;46.50;;;;;;6083109;29;20113;-76
2023/07/28 02:47:37;;;;;;;2.60;1.17;;;25.10;46.80;;;;;;6097594;29;20101;-75
2023/07/28 02:50:39;;;;;;;3.30;1.08;;;25.00;47.30;;;;;;6102345;29;20104;-77
2023/07/28 02:53:40;;;;;;;2.65;1.20;;;24.50;47.50;;;;;;6110076;29;20079;-76
2023/07/28 02:56:40;;;;;;;2.00;0.93;;;24.90;48.00;;;;;;6109743;29;20039;-75
2023/07/28 02:59:45;;;;;;;1.17;0.88;;;24.90;48.50;;;;;;6109621;29;20134;-76
2023/07/28 03:02:46;;;;;;;6.40;1.70;;;24.90;49.00;;;;;;6110711;29;20032;-76
2023/07/28 03:05:51;;;;;;;2.53;1.38;;;24.80;49.30;;;;;;6109919;29;20036;-76
2023/07/28 03:08:58;;;;;;;6.68;1.63;;;24.80;49.30;;;;;;6111498;29;20031;-76
2023/07/28 03:12:16;;;;;;;5.00;1.35;;;24.80;49.40;;;;;;6112071;29;20558;-77
2023/07/28 03:15:17;;;;;;;1.85;1.10;;;24.80;49.70;;;;;;6113703;29;20071;-75
2023/07/28 03:18:18;;;;;;;7.43;1.75;;;24.80;49.80;;;;;;6114367;29;20039;-76
2023/07/28 03:21:19;;;;;;;2.65;1.23;;;24.80;49.90;;;;;;6113703;29;20028;-75
2023/07/28 03:24:20;;;;;;;5.05;1.30;;;24.90;50.00;;;;;;6129749;29;20028;-77
2023/07/28 03:27:21;;;;;;;2.75;1.30;;;24.90;50.60;;;;;;6128622;29;20095;-77
2023/07/28 03:30:22;;;;;;;7.28;1.20;;;24.90;50.10;;;;;;6110562;29;20043;-76
2023/07/28 03:33:23;;;;;;;2.80;1.08;;;24.90;50.20;;;;;;6127598;29;20051;-77
2023/07/28 03:36:23;;;;;;;5.63;1.35;;;25.00;49.80;;;;;;6109952;29;20047;-77
2023/07/28 03:39:24;;;;;;;2.38;1.27;;;25.00;49.30;;;;;;6109797;29;20487;-76
2023/07/28 03:42:26;;;;;;;2.58;1.30;;;25.00;48.70;;;;;;6109152;29;20031;-76
2023/07/28 03:45:27;;;;;;;3.00;1.02;;;25.10;48.10;;;;;;6100690;29;20186;-76
2023/07/28 03:48:28;;;;;;;1.90;1.38;;;25.10;47.90;;;;;;6087000;29;20067;-76
2023/07/28 03:51:28;;;;;;;10.98;1.35;;;25.10;47.70;;;;;;6103538;29;20248;-77
2023/07/28 03:54:29;;;;;;;1.48;1.00;;;25.10;47.80;;;;;;6109374;29;20530;-75
2023/07/28 03:57:30;;;;;;;3.83;1.50;;;25.10;47.70;;;;;;6109963;29;20149;-76
2023/07/28 04:00:31;;;;;;;6.82;1.60;;;25.20;48.40;;;;;;6128236;29;20111;-77
2023/07/28 04:03:32;;;;;;;2.03;1.02;;;25.20;47.70;;;;;;6110043;29;20218;-76
2023/07/28 04:06:59;;;;;;;3.28;1.42;;;25.20;48.00;;;;;;6108841;29;20146;-77
2023/07/28 04:10:00;;;;;;;4.25;1.55;;;25.20;48.40;;;;;;6124554;29;20035;-78
2023/07/28 04:13:00;;;;;;;1.55;1.10;;;25.30;48.40;;;;;;6124242;29;20043;-77
2023/07/28 04:16:01;;;;;;;5.93;1.50;;;25.20;48.40;;;;;;6107536;29;20409;-75
2023/07/28 04:19:04;;;;;;;4.60;1.38;;;25.20;48.60;;;;;;6110361;29;20039;-77
2023/07/28 04:22:05;;;;;;;3.25;1.50;;;25.20;48.90;;;;;;6109599;29;20054;-77
2023/07/28 04:25:08;;;;;;;2.97;1.70;;;25.20;49.20;;;;;;6105934;29;20028;-77
2023/07/28 04:28:09;;;;;;;2.15;1.13;;;25.20;49.10;;;;;;6118670;29;20039;-76
2023/07/28 04:31:11;;;;;;;3.85;1.13;;;25.20;48.90;;;;;;6108726;29;20031;-77
2023/07/28 04:34:35;;;;;;;2.28;1.42;;;25.10;48.90;;;;;;6109771;29;20031;-76
2023/07/28 04:37:48;;;;;;;3.47;1.55;;;25.10;49.10;;;;;;6122863;29;20039;-77
2023/07/28 04:40:59;;;;;;;3.13;1.33;;;25.10;49.20;;;;;;6123536;29;20031;-78
2023/07/28 04:44:18;;;;;;;5.45;1.42;;;25.10;49.30;;;;;;6125326;29;20122;-77
2023/07/28 04:47:18;;;;;;;2.75;1.65;;;25.10;49.60;;;;;;6125594;29;20362;-76
2023/07/28 04:50:20;;;;;;;1.13;0.90;;;25.10;49.70;;;;;;6124876;29;20039;-76
2023/07/28 04:53:39;;;;;;;5.90;1.60;;;25.10;49.70;;;;;;6126222;29;20158;-76
2023/07/28 04:56:53;;;;;;;2.13;1.38;;;25.10;49.50;;;;;;6123886;29;20060;-76
2023/07/28 04:59:58;;;;;;;2.88;1.17;;;25.10;49.70;;;;;;6123882;29;20147;-78
2023/07/28 05:02:59;;;;;;;1.90;1.20;;;25.10;49.80;;;;;;6122562;29;20043;-76
2023/07/28 05:06:04;;;;;;;4.20;2.00;;;25.10;50.00;;;;;;6108550;29;20095;-77
2023/07/28 05:09:05;;;;;;;2.55;1.20;;;25.00;50.30;;;;;;6123484;29;20775;-77
2023/07/28 05:12:08;;;;;;;8.35;1.85;;;24.90;50.90;;;;;;6123443;29;20039;-78
2023/07/28 05:15:17;;;;;;;4.10;1.85;;;24.70;51.60;;;;;;6122337;29;20090;-76
2023/07/28 05:18:18;;;;;;;4.65;1.48;;;24.60;52.00;;;;;;6125862;29;20058;-78
2023/07/28 05:21:44;;;;;;;3.20;1.50;;;24.50;52.60;;;;;;6112072;29;20083;-76
2023/07/28 05:24:48;;;;;;;1.52;0.98;;;24.30;53.20;;;;;;6099534;29;20055;-77
2023/07/28 05:27:49;;;;;;;2.80;1.23;;;24.30;53.80;;;;;;6099233;29;20104;-76
2023/07/28 05:30:50;;;;;;;4.03;1.70;;;24.20;54.30;;;;;;6083976;29;20028;-77
2023/07/28 05:33:53;;;;;;;2.78;1.27;;;24.20;54.80;;;;;;6099084;29;20035;-78
2023/07/28 05:36:56;;;;;;;2.95;1.90;;;24.10;55.20;;;;;;6099639;29;20036;-76
2023/07/28 05:39:59;;;;;;;2.80;1.42;;;24.10;55.40;;;;;;6107807;29;20063;-76
2023/07/28 05:43:00;;;;;;;5.93;1.77;;;24.10;55.50;;;;;;6106986;29;20032;-76
2023/07/28 05:46:01;;;;;;;4.30;1.50;;;24.20;55.90;;;;;;6106135;29;20039;-77
2023/07/28 05:49:06;;;;;;;7.10;1.98;;;24.20;56.20;;;;;;6106394;29;20381;-76
2023/07/28 05:52:07;;;;;;;7.63;1.98;;;24.20;56.40;;;;;;6092313;29;20035;-77
2023/07/28 05:55:08;;;;;;;7.65;1.60;;;24.20;56.60;;;;;;6091772;29;20035;-77
2023/07/28 05:58:09;;;;;;;3.10;1.55;;;24.10;56.90;;;;;;6092426;29;20089;-76
2023/07/28 06:01:13;;;;;;;7.20;1.83;;;24.10;57.00;;;;;;6106625;29;20512;-77
2023/07/28 06:04:40;;;;;;;4.25;1.92;;;24.10;57.00;;;;;;6115659;29;20035;-75
2023/07/28 06:07:42;;;;;;;2.88;1.80;;;24.20;57.20;;;;;;6107722;29;20095;-77
2023/07/28 06:10:42;;;;;;;3.83;1.75;;;24.20;57.30;;;;;;6107487;29;20028;-77
2023/07/28 06:13:45;;;;;;;4.20;1.73;;;24.30;57.20;;;;;;6108032;29;20051;-78
2023/07/28 06:16:46;;;;;;;6.35;2.15;;;24.30;57.00;;;;;;6107302;29;20056;-77
2023/07/28 06:19:47;;;;;;;3.67;1.63;;;24.30;56.90;;;;;;6108190;29;20063;-77
2023/07/28 06:22:48;;;;;;;4.30;1.83;;;24.40;56.90;;;;;;6107951;29;20556;-76
2023/07/28 06:25:49;;;;;;;4.03;1.80;;;24.40;57.00;;;;;;6125114;29;20028;-77
2023/07/28 06:28:50;;;;;;;6.32;2.10;;;24.50;57.10;;;;;;6114755;29;20031;-76
2023/07/28 06:31:51;;;;;;;4.90;1.80;;;24.50;57.00;;;;;;6126125;29;20110;-79
2023/07/28 06:34:54;;;;;;;2.78;1.88;;;24.60;57.00;;;;;;6108574;29;20036;-76
2023/07/28 06:37:55;;;;;;;4.40;1.90;;;24.70;56.90;;;;;;6116165;29;20044;-77
2023/07/28 06:40:56;;;;;;;3.42;1.80;;;24.80;56.70;;;;;;6115518;29;20202;-75
2023/07/28 06:43:56;;;;;;;5.05;1.80;;;24.80;56.60;;;;;;6100258;29;20040;-75
2023/07/28 06:46:57;;;;;;;5.07;2.22;;;24.80;56.70;;;;;;6099306;29;20040;-76
2023/07/28 06:49:58;;;;;;;8.35;1.90;;;24.90;56.80;;;;;;6098716;29;20062;-76
2023/07/28 06:52:59;;;;;;;5.88;2.33;;;25.00;56.80;;;;;;6098594;29;20046;-77
2023/07/28 06:56:01;;;;;;;3.75;2.00;;;25.10;56.50;;;;;;6098407;29;20051;-77
2023/07/28 06:59:02;;;;;;;2.92;1.50;;;25.10;56.30;;;;;;6098999;29;20036;-76
2023/07/28 07:02:04;;;;;;;6.18;1.52;;;25.20;56.20;;;;;;6097189;29;20051;-75
2023/07/28 07:05:05;;;;;;;2.95;1.88;;;25.30;56.00;;;;;;6099073;29;20040;-78
2023/07/28 07:08:06;;;;;;;4.38;1.85;;;25.30;55.80;;;;;;6098906;29;20068;-76
2023/07/28 07:11:07;;;;;;;2.55;1.45;;;25.40;55.60;;;;;;6096877;29;20036;-76
2023/07/28 07:14:08;;;;;;;4.65;2.00;;;25.50;55.50;;;;;;6098647;29;20036;-78
2023/07/28 07:17:09;;;;;;;5.70;1.80;;;25.70;55.40;;;;;;6098514;29;20060;-77
2023/07/28 07:20:10;;;;;;;3.38;1.75;;;25.80;55.10;;;;;;6100265;29;20051;-75
2023/07/28 07:23:12;;;;;;;5.10;2.17;;;25.80;55.00;;;;;;6113143;29;20036;-76
2023/07/28 07:26:14;;;;;;;3.83;1.95;;;25.80;55.20;;;;;;6122342;29;20103;-76
2023/07/28 07:29:14;;;;;;;3.33;1.42;;;25.80;55.20;;;;;;6105159;29;20389;-76
2023/07/28 07:32:16;;;;;;;4.32;1.88;;;25.80;55.20;;;;;;6122772;29;20129;-76
2023/07/28 07:35:17;;;;;;;5.10;1.92;;;25.70;55.20;;;;;;6122290;29;20062;-76
2023/07/28 07:38:18;;;;;;;4.20;2.13;;;25.60;55.40;;;;;;6108946;29;20104;-77
2023/07/28 07:41:22;;;;;;;4.45;1.48;;;25.50;56.20;;;;;;6111351;29;20097;-77
2023/07/28 07:44:23;;;;;;;3.22;1.92;;;25.20;55.60;;;;;;6109770;29;20623;-76
2023/07/28 07:47:24;;;;;;;7.10;1.80;;;25.40;55.70;;;;;;6107577;29;20063;-79
2023/07/28 07:50:25;;;;;;;3.95;1.70;;;25.50;55.50;;;;;;6125488;29;20494;-77
2023/07/28 07:53:26;;;;;;;6.10;2.22;;;25.60;55.10;;;;;;6092626;29;20036;-75
2023/07/28 07:56:27;;;;;;;2.08;1.58;;;25.90;54.70;;;;;;6126362;29;20122;-77
2023/07/28 07:59:30;;;;;;;2.90;1.83;;;26.10;54.10;;;;;;6125904;29;20035;-78
2023/07/28 08:02:31;;;;;;;2.72;1.80;;;26.20;53.50;;;;;;6125262;29;20528;-77
2023/07/28 08:05:32;;;;;;;4.45;1.42;;;26.30;53.00;;;;;;6124699;29;20035;-77
2023/07/28 08:08:33;;;;;;;4.55;1.73;;;26.30;52.80;;;;;;6107856;29;20031;-76
2023/07/28 08:11:33;;;;;;;3.88;1.90;;;26.30;52.60;;;;;;6124940;29;20123;-76
2023/07/28 08:14:34;;;;;;;5.28;1.67;;;26.50;52.50;;;;;;6126099;29;20115;-77
2023/07/28 08:17:35;;;;;;;4.63;1.95;;;26.70;52.30;;;;;;6110183;29;20135;-77
2023/07/28 08:20:36;;;;;;;7.25;1.92;;;26.90;51.90;;;;;;6110472;29;20468;-77
2023/07/28 08:23:37;;;;;;;2.92;1.73;;;27.10;51.60;;;;;;6101006;29;20036;-76
2023/07/28 08:26:38;;;;;;;3.92;1.80;;;27.30;51.20;;;;;;6109759;29;20046;-76
2023/07/28 08:29:38;;;;;;;4.80;1.90;;;27.60;50.70;;;;;;6125368;29;20088;-77
2023/07/28 08:32:39;;;;;;;2.97;1.70;;;27.80;50.20;;;;;;6107778;29;20188;-76
2023/07/28 08:35:40;;;;;;;4.45;1.98;;;28.00;49.50;;;;;;6091289;29;20503;-77
2023/07/28 08:38:41;;;;;;;3.97;1.67;;;28.20;48.70;;;;;;6106763;29;20083;-77
2023/07/28 08:41:42;;;;;;;3.00;1.63;;;28.40;48.00;;;;;;6124209;29;20051;-77
2023/07/28 08:44:45;;;;;;;2.88;1.50;;;28.50;47.60;;;;;;6124289;29;20487;-77
2023/07/28 08:47:46;;;;;;;4.82;1.65;;;28.60;47.20;;;;;;6124296;29;20083;-77
2023/07/28 08:50:47;;;;;;;2.00;1.40;;;28.80;46.60;;;;;;6125264;29;20079;-78
2023/07/28 08:53:48;;;;;;;4.43;1.73;;;29.00;46.20;;;;;;6118571;29;20103;-75
2023/07/28 08:56:50;;;;;;;6.50;1.90;;;29.20;45.60;;;;;;6122279;29;20051;-76
2023/07/28 08:59:51;;;;;;;2.83;1.83;;;29.40;45.00;;;;;;6123928;29;20036;-78
2023/07/28 09:02:52;;;;;;;3.53;1.80;;;29.50;44.60;;;;;;6123862;29;20031;-76
2023/07/28 09:05:54;;;;;;;4.00;1.40;;;29.50;44.30;;;;;;6121860;29;20501;-76
2023/07/28 09:08:57;;;;;;;3.42;1.75;;;29.50;43.90;;;;;;6123311;29;20035;-77
2023/07/28 09:12:00;;;;;;;4.38;1.58;;;29.60;43.30;;;;;;6122886;29;20087;-75
2023/07/28 09:15:00;;;;;;;3.20;1.77;;;29.70;43.20;;;;;;6106511;29;20038;-77
2023/07/28 09:18:01;;;;;;;2.50;1.42;;;29.90;43.00;;;;;;6121792;29;20123;-76
2023/07/28 09:21:02;;;;;;;4.30;1.58;;;30.00;42.80;;;;;;6105908;29;20405;-77
2023/07/28 09:24:08;;;;;;;3.47;1.88;;;29.80;42.50;;;;;;6123490;29;20506;-76
2023/07/28 09:27:23;;;;;;;6.38;1.55;;;30.00;42.20;;;;;;6106563;29;20059;-78
2023/07/28 09:30:24;;;;;;;2.85;1.75;;;30.10;41.90;;;;;;6106793;29;20036;-75
2023/07/28 09:33:30;;;;;;;2.90;1.92;;;30.30;42.50;;;;;;6107253;29;20056;-77
2023/07/28 09:36:31;;;;;;;2.63;1.30;;;30.50;41.50;;;;;;6089736;29;20067;-77
2023/07/28 09:39:36;;;;;;;3.58;1.75;;;30.50;41.10;;;;;;6123372;29;20050;-76
2023/07/28 09:42:37;;;;;;;2.40;1.27;;;30.70;40.80;;;;;;6106311;29;20101;-77
2023/07/28 09:45:39;;;;;;;3.67;1.70;;;30.70;40.50;;;;;;6104743;29;20031;-77
2023/07/28 09:48:45;;;;;;;3.60;1.70;;;30.70;40.60;;;;;;6123284;29;20111;-76
2023/07/28 09:51:49;;;;;;;3.33;1.90;;;30.70;39.90;;;;;;6106275;29;20065;-77
2023/07/28 09:54:54;;;;;;;2.25;1.65;;;30.70;40.10;;;;;;6105378;29;20075;-77
2023/07/28 09:57:57;;;;;;;2.92;1.70;;;30.70;40.20;;;;;;6104654;29;20108;-76
2023/07/28 10:00:58;;;;;;;3.10;1.50;;;30.70;40.20;;;;;;6104900;29;20612;-76
2023/07/28 10:04:00;;;;;;;2.85;1.65;;;30.90;40.00;;;;;;6089742;29;20094;-78
2023/07/28 10:07:10;;;;;;;6.78;1.80;;;31.00;39.80;;;;;;6105470;29;20075;-77
2023/07/28 10:10:12;;;;;;;3.28;1.95;;;31.10;39.60;;;;;;6105352;29;20031;-78
2023/07/28 10:13:21;;;;;;;3.63;1.88;;;31.00;39.40;;;;;;6122379;29;20039;-78
2023/07/28 10:16:38;;;;;;;4.43;1.95;;;30.90;39.20;;;;;;6122078;29;20069;-77
2023/07/28 10:19:39;;;;;;;3.03;1.70;;;30.80;39.50;;;;;;6121884;29;20184;-77
2023/07/28 10:22:46;;;;;;;2.95;1.67;;;30.90;39.60;;;;;;6122383;29;20032;-77
2023/07/28 10:26:03;;;;;;;2.47;1.83;;;31.00;39.40;;;;;;6123449;29;20160;-77
2023/07/28 10:29:14;;;;;;;6.10;1.85;;;31.40;39.30;;;;;;6124242;29;20043;-77
2023/07/28 10:32:27;;;;;;;2.83;1.88;;;31.70;38.80;;;;;;6107843;29;20063;-77
2023/07/28 10:35:30;;;;;;;4.38;2.22;;;31.90;38.50;;;;;;6124033;29;20047;-78
2023/07/28 10:38:34;;;;;;;3.00;1.73;;;32.30;38.10;;;;;;6123715;29;20146;-77
2023/07/28 10:41:35;;;;;;;4.18;1.65;;;32.60;37.60;;;;;;6124500;29;20447;-76
2023/07/28 10:44:37;;;;;;;2.92;1.65;;;32.80;37.10;;;;;;6123977;29;20035;-78
2023/07/28 10:47:39;;;;;;;5.88;1.90;;;33.00;36.80;;;;;;6106477;29;20463;-77
2023/07/28 10:50:40;;;;;;;4.78;2.03;;;33.10;36.80;;;;;;6106727;29;20079;-78
2023/07/28 10:53:40;;;;;;;4.20;1.75;;;33.20;36.70;;;;;;6117314;29;20100;-77
2023/07/28 10:56:41;;;;;;;3.33;1.80;;;33.20;36.40;;;;;;6124205;29;20159;-77
2023/07/28 10:59:42;;;;;;;3.33;1.50;;;33.30;36.40;;;;;;6123642;29;20044;-76
2023/07/28 11:02:50;;;;;;;5.55;1.85;;;33.40;36.40;;;;;;6123586;29;20114;-77
2023/07/28 11:05:53;;;;;;;3.28;1.50;;;33.50;36.20;;;;;;6122782;29;20027;-76
2023/07/28 11:08:54;;;;;;;3.33;1.63;;;33.70;35.90;;;;;;6106661;29;20134;-74
2023/07/28 11:11:55;;;;;;;2.15;1.45;;;33.80;35.70;;;;;;6124091;29;20048;-76
2023/07/28 11:14:56;;;;;;;3.05;1.50;;;33.80;35.40;;;;;;6127160;29;20094;-78
2023/07/28 11:17:57;;;;;;;2.75;1.70;;;33.90;35.10;;;;;;6111717;29;20070;-77
2023/07/28 11:20:59;;;;;;;3.00;1.45;;;34.10;34.80;;;;;;6129277;29;20042;-77
2023/07/28 11:24:00;;;;;;;3.92;1.90;;;34.30;34.20;;;;;;6111140;29;20118;-77
2023/07/28 11:27:02;;;;;;;3.28;1.60;;;34.70;33.70;;;;;;6111077;29;20506;-78
2023/07/28 11:30:04;;;;;;;2.70;1.15;;;35.00;32.90;;;;;;6112105;29;20184;-77
2023/07/28 11:33:10;;;;;;;4.30;1.40;;;35.50;32.40;;;;;;6112045;29;20035;-78
2023/07/28 11:36:11;;;;;;;2.20;1.10;;;35.90;31.90;;;;;;6112636;29;20043;-78
2023/07/28 11:39:14;;;;;;;4.10;1.65;;;36.40;31.20;;;;;;6130310;29;20063;-78
2023/07/28 11:42:14;;;;;;;6.63;1.52;;;36.60;30.90;;;;;;6098070;29;20071;-79
2023/07/28 11:45:18;;;;;;;4.82;1.80;;;36.50;31.00;;;;;;6113338;29;20100;-78
2023/07/28 11:48:19;;;;;;;8.57;1.85;;;36.50;31.30;;;;;;6114307;29;20349;-77
2023/07/28 11:51:20;;;;;;;3.35;1.60;;;36.50;31.30;;;;;;6132395;29;20048;-77
2023/07/28 11:54:23;;;;;;;2.05;1.30;;;36.50;31.30;;;;;;6112491;29;20039;-76
2023/07/28 11:57:25;;;;;;;6.85;1.65;;;36.40;31.50;;;;;;6096958;29;20040;-77
2023/07/28 12:00:37;;;;;;;2.65;1.60;;;36.30;31.60;;;;;;6111627;29;20032;-77
2023/07/28 12:03:37;;;;;;;3.13;1.40;;;35.90;31.70;;;;;;6130762;29;20038;-77
2023/07/28 12:07:02;;;;;;;3.30;1.50;;;35.90;32.00;;;;;;6129980;29;20040;-76
2023/07/28 12:10:06;;;;;;;4.78;1.88;;;35.70;32.00;;;;;;6112462;29;20040;-79
2023/07/28 12:13:07;;;;;;;3.40;1.55;;;35.60;32.00;;;;;;6111548;29;20036;-77
2023/07/28 12:16:08;;;;;;;3.20;1.30;;;35.60;31.90;;;;;;6129506;29;20168;-78
2023/07/28 12:19:09;;;;;;;1.70;1.30;;;35.90;31.70;;;;;;6130941;29;20509;-79
2023/07/28 12:22:11;;;;;;;4.25;1.70;;;36.30;31.20;;;;;;6132100;29;20424;-77
2023/07/28 12:25:12;;;;;;;2.90;1.30;;;36.90;30.40;;;;;;6111480;29;20483;-79
2023/07/28 12:28:13;;;;;;;2.33;1.27;;;37.30;29.80;;;;;;6111515;29;20099;-77
2023/07/28 12:31:14;;;;;;;4.30;1.70;;;37.40;29.40;;;;;;6110266;29;20131;-77
2023/07/28 12:34:15;;;;;;;1.98;1.38;;;37.40;29.20;;;;;;6111370;29;20035;-77
2023/07/28 12:37:17;;;;;;;2.45;1.40;;;37.30;29.10;;;;;;6094341;29;20071;-77
2023/07/28 12:40:19;;;;;;;3.38;1.70;;;37.60;29.00;;;;;;6110695;29;20165;-78
2023/07/28 12:43:20;;;;;;;4.65;1.60;;;38.10;28.60;;;;;;6129134;29;20110;-77
2023/07/28 12:46:21;;;;;;;2.08;1.60;;;38.60;28.20;;;;;;6110465;29;20043;-78
2023/07/28 12:49:21;;;;;;;6.57;1.73;;;39.20;27.50;;;;;;6126597;29;20039;-79
2023/07/28 12:52:22;;;;;;;3.33;1.70;;;39.40;27.10;;;;;;6127178;29;20065;-77
2023/07/28 12:55:23;;;;;;;2.42;1.25;;;39.70;26.70;;;;;;6110171;29;20086;-78
2023/07/28 12:58:24;;;;;;;2.80;1.35;;;40.00;26.20;;;;;;6110032;29;20536;-78
2023/07/28 13:01:24;;;;;;;1.77;1.38;;;40.10;25.90;;;;;;6111656;29;20027;-77
2023/07/28 13:04:25;;;;;;;1.90;1.35;;;40.50;25.80;;;;;;6112507;29;20079;-79
2023/07/28 13:07:26;;;;;;;3.55;1.55;;;41.10;25.20;;;;;;6129470;29;20035;-79
2023/07/28 13:10:27;;;;;;;2.95;1.77;;;41.50;25.00;;;;;;6112842;29;20523;-80
2023/07/28 13:13:30;;;;;;;2.63;1.50;;;41.60;24.30;;;;;;6128232;29;20032;-79
2023/07/28 13:16:31;;;;;;;2.30;1.63;;;41.20;24.50;;;;;;6114177;29;20043;-81
2023/07/28 13:19:32;;;;;;;1.67;1.27;;;40.40;25.20;;;;;;6129788;29;20036;-80
2023/07/28 13:22:33;;;;;;;2.67;1.55;;;39.50;26.00;;;;;;6112723;29;20055;-80
2023/07/28 13:25:34;;;;;;;2.10;1.50;;;38.90;26.70;;;;;;6105255;29;20044;-78
2023/07/28 13:28:35;;;;;;;2.03;1.80;;;38.70;26.80;;;;;;6104982;29;20496;-80
2023/07/28 13:31:36;;;;;;;3.63;1.67;;;39.00;27.30;;;;;;6088224;29;20370;-78
2023/07/28 13:34:36;;;;;;;2.05;1.23;;;40.00;26.30;;;;;;6087952;29;20092;-79
2023/07/28 13:37:37;;;;;;;4.82;2.00;;;40.70;25.40;;;;;;6104348;29;20354;-78
2023/07/28 13:40:38;;;;;;;2.10;1.55;;;41.50;24.80;;;;;;6106817;29;20119;-80
2023/07/28 13:43:40;;;;;;;4.65;1.30;;;42.40;24.10;;;;;;6087669;29;20028;-80
2023/07/28 13:46:41;;;;;;;2.78;1.63;;;43.30;23.30;;;;;;6103318;29;20124;-78
2023/07/28 13:49:42;;;;;;;3.42;1.75;;;43.60;23.00;;;;;;6113721;29;20036;-80
2023/07/28 13:52:42;;;;;;;8.60;1.35;;;43.70;22.90;;;;;;6110241;29;20314;-79
2023/07/28 13:55:43;;;;;;;2.35;1.52;;;43.30;23.00;;;;;;6125922;29;20148;-81
2023/07/28 13:58:44;;;;;;;5.47;1.73;;;42.70;23.50;;;;;;6128016;29;20038;-80
2023/07/28 14:01:45;;;;;;;2.33;1.75;;;42.50;23.50;;;;;;6125334;29;20177;-80
2023/07/28 14:04:46;;;;;;;3.85;1.40;;;42.60;23.40;;;;;;6126092;29;20020;-81
2023/07/28 14:07:47;;;;;;;3.38;1.73;;;42.80;23.40;;;;;;6128602;29;20504;-80
2023/07/28 14:10:48;;;;;;;2.80;1.50;;;42.90;23.30;;;;;;6128393;29;20043;-80
2023/07/28 14:13:49;;;;;;;4.15;1.70;;;43.00;23.10;;;;;;6110026;29;20035;-77
2023/07/28 14:16:49;;;;;;;2.80;1.42;;;43.30;23.00;;;;;;6127068;29;20094;-79
2023/07/28 14:19:51;;;;;;;4.57;1.50;;;43.60;22.70;;;;;;6110791;29;20102;-79
2023/07/28 14:22:52;;;;;;;2.33;1.42;;;43.80;22.70;;;;;;6111624;29;20031;-78
2023/07/28 14:25:54;;;;;;;2.25;1.67;;;44.10;22.50;;;;;;6126343;29;20036;-79
2023/07/28 14:28:55;;;;;;;2.38;1.77;;;43.50;22.80;;;;;;6130735;29;20063;-80
2023/07/28 14:31:55;;;;;;;1.80;1.40;;;42.60;23.40;;;;;;6128808;29;20036;-79
2023/07/28 14:34:56;;;;;;;3.33;1.60;;;41.70;24.10;;;;;;6128941;29;20031;-79
2023/07/28 14:37:57;;;;;;;5.38;1.83;;;40.70;25.00;;;;;;6128215;29;20097;-80
2023/07/28 14:40:58;;;;;;;6.75;1.50;;;39.70;25.90;;;;;;6130154;29;20054;-79
2023/07/28 14:43:59;;;;;;;5.18;1.80;;;38.80;26.70;;;;;;6130075;29;20694;-79
2023/07/28 14:47:00;;;;;;;1.77;1.63;;;38.00;27.50;;;;;;6132934;29;20044;-80
2023/07/28 14:50:01;;;;;;;5.03;1.67;;;37.40;28.20;;;;;;6136675;29;20027;-80
2023/07/28 14:53:01;;;;;;;4.03;2.03;;;36.80;28.60;;;;;;6121940;29;20067;-80
2023/07/28 14:56:04;;;;;;;7.85;2.03;;;36.50;29.00;;;;;;6112580;29;20036;-80
2023/07/28 14:59:05;;;;;;;7.13;1.88;;;36.40;29.20;;;;;;6114629;29;20040;-80
2023/07/28 15:02:07;;;;;;;2.53;1.73;;;36.40;29.20;;;;;;6119106;29;20058;-79
2023/07/28 15:05:08;;;;;;;3.00;1.58;;;36.40;29.20;;;;;;6121466;29;20027;-80
2023/07/28 15:08:09;;;;;;;3.45;1.80;;;36.20;29.20;;;;;;6137644;29;20126;-78
2023/07/28 15:11:10;;;;;;;5.93;1.70;;;36.00;29.30;;;;;;6137263;29;20146;-78
2023/07/28 15:14:11;;;;;;;5.93;1.60;;;35.80;29.40;;;;;;6137171;29;20035;-79
2023/07/28 15:17:12;;;;;;;6.63;1.88;;;35.50;29.60;;;;;;6117095;29;20035;-79
2023/07/28 15:20:13;;;;;;;5.15;2.05;;;35.30;29.70;;;;;;6134015;29;20453;-81
2023/07/28 15:23:14;;;;;;;2.55;1.88;;;35.20;29.70;;;;;;6115435;29;20138;-81
2023/07/28 15:26:15;;;;;;;3.03;1.92;;;35.50;29.70;;;;;;6131550;29;20054;-80
2023/07/28 15:29:16;;;;;;;2.08;1.50;;;35.90;29.40;;;;;;6147907;29;20106;-78
2023/07/28 15:32:17;;;;;;;3.35;1.88;;;36.70;28.80;;;;;;6115268;29;20593;-80
2023/07/28 15:35:18;;;;;;;2.78;1.70;;;37.80;27.90;;;;;;6132364;29;20035;-80
2023/07/28 15:38:19;;;;;;;3.88;1.70;;;38.60;27.10;;;;;;6130346;29;20028;-79
2023/07/28 15:41:20;;;;;;;2.60;1.60;;;39.20;26.60;;;;;;6130001;29;20126;-80
2023/07/28 15:44:21;;;;;;;2.35;1.67;;;39.60;26.10;;;;;;6090562;29;20050;-79
2023/07/28 15:47:22;;;;;;;2.40;1.15;;;39.70;26.00;;;;;;6088922;29;20040;-79
2023/07/28 15:50:23;;;;;;;3.08;1.80;;;39.70;26.00;;;;;;6106062;29;20036;-79
2023/07/28 15:53:24;;;;;;;2.00;1.58;;;40.00;25.70;;;;;;6091409;29;20051;-79